Time;durP1;ratioP1;P1;durP2;ratioP2;P2;SDS_P1;SDS_P2;PMS_P1;PMS_P2;Temp;Humidity;BMP_temperature;BMP_pressure;BME280_temperature;BME280_humidity;BME280_pressure;Samples;Min_cycle;Max_cycle;Signal;HPM_P1;HPM_P2
2021/06/12 00:00:11;;;;;;;6.60;5.75;;;17.70;81.90;;;;;;5053541;28;20033;-82
2021/06/12 00:02:37;;;;;;;9.07;6.10;;;17.60;82.10;;;;;;5053627;28;20061;-82
2021/06/12 00:05:05;;;;;;;8.73;5.97;;;17.60;82.30;;;;;;5053407;28;20032;-82
2021/06/12 00:07:31;;;;;;;6.72;5.80;;;17.60;82.50;;;;;;5053122;28;20021;-82
2021/06/12 00:09:57;;;;;;;7.45;5.85;;;17.60;82.60;;;;;;5069384;28;20023;-82
2021/06/12 00:12:22;;;;;;;7.50;6.20;;;17.50;82.50;;;;;;5053030;28;20494;-82
2021/06/12 00:14:48;;;;;;;10.25;5.93;;;17.50;82.70;;;;;;5053617;28;20071;-82
2021/06/12 00:17:14;;;;;;;6.00;5.40;;;17.50;82.70;;;;;;5053066;28;20029;-82
2021/06/12 00:19:40;;;;;;;7.65;6.40;;;17.50;82.80;;;;;;5053540;28;20021;-82
2021/06/12 00:22:06;;;;;;;8.65;6.55;;;17.50;82.90;;;;;;5053503;28;20029;-81
2021/06/12 00:24:31;;;;;;;9.30;7.13;;;17.50;82.90;;;;;;5053220;28;20083;-82
2021/06/12 00:26:57;;;;;;;11.27;7.40;;;17.40;82.90;;;;;;5052803;28;20036;-82
2021/06/12 00:29:23;;;;;;;11.52;9.38;;;17.40;83.10;;;;;;5053411;28;20048;-82
2021/06/12 00:31:48;;;;;;;11.68;9.13;;;17.40;83.10;;;;;;5055097;28;20116;-82
2021/06/12 00:34:14;;;;;;;11.73;9.10;;;17.50;83.20;;;;;;5056950;28;20460;-82
2021/06/12 00:36:40;;;;;;;21.67;17.75;;;17.50;83.20;;;;;;5056808;28;20080;-82
2021/06/12 00:39:06;;;;;;;13.32;9.52;;;17.50;83.00;;;;;;5056823;28;20402;-80
2021/06/12 00:41:32;;;;;;;13.50;10.18;;;17.50;82.90;;;;;;5056546;28;20020;-82
2021/06/12 00:43:57;;;;;;;11.70;8.95;;;17.50;82.90;;;;;;5055344;28;20029;-82
2021/06/12 00:46:23;;;;;;;9.98;8.98;;;17.50;82.80;;;;;;5056219;28;20099;-82
2021/06/12 00:48:51;;;;;;;10.90;9.57;;;17.50;82.80;;;;;;5057048;28;20052;-82
2021/06/12 00:51:17;;;;;;;9.90;7.75;;;17.60;82.70;;;;;;5065997;28;20001;-81
2021/06/12 00:53:43;;;;;;;7.88;6.05;;;17.50;82.60;;;;;;5071457;28;20116;-82
2021/06/12 00:56:12;;;;;;;10.30;6.07;;;17.50;82.50;;;;;;5056417;28;20435;-81
2021/06/12 00:58:43;;;;;;;8.70;5.95;;;17.50;82.60;;;;;;5057119;28;20091;-82
2021/06/12 01:01:15;;;;;;;7.45;5.90;;;17.50;82.60;;;;;;5056588;28;20433;-81
2021/06/12 01:03:42;;;;;;;9.40;5.70;;;17.40;82.70;;;;;;5056222;28;20098;-81
2021/06/12 01:06:09;;;;;;;10.05;5.97;;;17.40;82.70;;;;;;5055643;28;20033;-82
2021/06/12 01:08:36;;;;;;;8.43;6.30;;;17.40;82.90;;;;;;5056185;28;20112;-82
2021/06/12 01:11:03;;;;;;;7.57;6.63;;;17.40;83.10;;;;;;5056095;28;20382;-81
2021/06/12 01:13:50;;;;;;;8.10;6.53;;;17.40;83.10;;;;;;5056105;28;20021;-82
2021/06/12 01:16:38;;;;;;;10.60;6.47;;;17.40;83.10;;;;;;5056049;28;20108;-82
2021/06/12 01:19:36;;;;;;;10.40;6.00;;;17.40;83.10;;;;;;5055773;28;20025;-83
2021/06/12 01:22:08;;;;;;;10.88;6.28;;;17.40;82.90;;;;;;5031361;28;20423;-82
2021/06/12 01:24:49;;;;;;;8.18;6.63;;;17.40;82.90;;;;;;5054793;28;20026;-82
2021/06/12 01:27:23;;;;;;;8.65;6.53;;;17.40;82.90;;;;;;5055595;28;20422;-82
2021/06/12 01:30:13;;;;;;;8.02;6.57;;;17.30;82.90;;;;;;5056001;28;20036;-82
2021/06/12 01:32:42;;;;;;;7.20;6.50;;;17.30;82.90;;;;;;5055899;28;20470;-82
2021/06/12 01:35:14;;;;;;;9.63;6.78;;;17.30;83.00;;;;;;5055758;28;20033;-82
2021/06/12 01:37:42;;;;;;;9.10;6.55;;;17.30;83.00;;;;;;5055815;28;20463;-82
2021/06/12 01:40:10;;;;;;;7.85;6.32;;;17.30;83.10;;;;;;5055760;28;20541;-83
2021/06/12 01:42:39;;;;;;;7.32;6.30;;;17.30;83.30;;;;;;5054271;28;20028;-83
2021/06/12 01:45:07;;;;;;;6.93;6.10;;;17.30;83.30;;;;;;5055242;28;20036;-83
2021/06/12 01:47:33;;;;;;;12.40;7.25;;;17.30;83.50;;;;;;5055735;28;20479;-82
2021/06/12 01:50:01;;;;;;;7.15;5.95;;;17.30;83.50;;;;;;5055638;28;20021;-83
2021/06/12 01:52:31;;;;;;;7.25;5.95;;;17.30;83.60;;;;;;5055729;28;20029;-82
2021/06/12 01:54:57;;;;;;;8.00;6.13;;;17.30;83.60;;;;;;5055350;28;20554;-83
2021/06/12 01:57:24;;;;;;;8.65;5.43;;;17.30;83.60;;;;;;5055400;28;20025;-83
2021/06/12 01:59:52;;;;;;;10.85;6.88;;;17.30;83.70;;;;;;5054119;28;20033;-83
2021/06/12 02:02:20;;;;;;;9.98;7.13;;;17.30;83.60;;;;;;5070806;28;20409;-82
2021/06/12 02:04:49;;;;;;;11.75;8.20;;;17.30;83.50;;;;;;5053938;28;20025;-82
2021/06/12 02:07:15;;;;;;;9.38;6.70;;;17.30;83.50;;;;;;5053844;28;20040;-83
2021/06/12 02:09:43;;;;;;;9.68;6.88;;;17.30;83.40;;;;;;5055266;28;20033;-83
2021/06/12 02:12:09;;;;;;;12.70;6.70;;;17.30;83.50;;;;;;5055354;28;20075;-83
2021/06/12 02:14:36;;;;;;;10.73;6.63;;;17.30;83.50;;;;;;5055365;28;20360;-82
2021/06/12 02:17:03;;;;;;;8.23;6.53;;;17.30;83.50;;;;;;5053851;28;20114;-83
2021/06/12 02:19:30;;;;;;;9.63;6.70;;;17.30;83.60;;;;;;5054865;28;20086;-82
2021/06/12 02:21:56;;;;;;;8.80;6.90;;;17.30;83.60;;;;;;5054824;28;20040;-83
2021/06/12 02:24:22;;;;;;;8.35;6.55;;;17.30;83.60;;;;;;5054424;28;20028;-82
2021/06/12 02:26:53;;;;;;;7.70;6.07;;;17.30;83.70;;;;;;5054131;28;20033;-83
2021/06/12 02:29:19;;;;;;;7.97;6.20;;;17.30;83.70;;;;;;5054577;28;20036;-82
2021/06/12 02:31:50;;;;;;;9.93;6.47;;;17.40;83.70;;;;;;5054738;28;20028;-82
2021/06/12 02:34:16;;;;;;;7.50;6.40;;;17.40;83.60;;;;;;5054484;28;20032;-82
2021/06/12 02:36:41;;;;;;;10.55;6.95;;;17.40;83.50;;;;;;5053272;28;20055;-82
2021/06/12 02:39:07;;;;;;;7.15;5.55;;;17.50;83.50;;;;;;5054756;28;20032;-83
2021/06/12 02:41:34;;;;;;;8.95;6.15;;;17.50;83.50;;;;;;5052945;28;20025;-83
2021/06/12 02:44:00;;;;;;;6.78;6.07;;;17.50;83.40;;;;;;5053907;28;20428;-83
2021/06/12 02:46:29;;;;;;;8.02;5.88;;;17.60;83.20;;;;;;5054132;28;20140;-83
2021/06/12 02:49:01;;;;;;;7.30;6.00;;;17.60;83.20;;;;;;5054700;28;20017;-82
2021/06/12 02:51:32;;;;;;;7.07;5.80;;;17.60;83.00;;;;;;5054255;28;20455;-83
2021/06/12 02:53:58;;;;;;;6.10;5.50;;;17.70;83.00;;;;;;5053854;28;20026;-83
2021/06/12 02:56:25;;;;;;;6.47;5.75;;;17.70;82.80;;;;;;5054631;28;20108;-82
2021/06/12 02:58:55;;;;;;;6.80;5.93;;;17.80;82.80;;;;;;5054571;28;20131;-83
2021/06/12 03:01:23;;;;;;;7.65;5.80;;;17.80;82.60;;;;;;5054343;28;20498;-82
2021/06/12 03:03:51;;;;;;;9.82;5.82;;;17.80;82.50;;;;;;5054196;28;20029;-83
2021/06/12 03:06:19;;;;;;;6.00;5.40;;;17.90;82.40;;;;;;5052832;28;20433;-82
2021/06/12 03:08:48;;;;;;;8.55;6.00;;;18.00;82.20;;;;;;5053870;28;20033;-83
2021/06/12 03:11:15;;;;;;;6.13;5.30;;;18.10;82.10;;;;;;5054079;28;20029;-83
2021/06/12 03:13:46;;;;;;;6.32;5.60;;;18.10;81.90;;;;;;5054231;28;20029;-83
2021/06/12 03:16:14;;;;;;;7.00;5.95;;;18.20;81.60;;;;;;5052736;28;20024;-83
2021/06/12 03:18:46;;;;;;;6.60;5.65;;;18.20;81.40;;;;;;5052457;28;20051;-83
2021/06/12 03:21:12;;;;;;;6.22;5.57;;;18.30;81.30;;;;;;5054584;28;20032;-83
2021/06/12 03:23:39;;;;;;;6.82;6.13;;;18.30;81.20;;;;;;5057864;28;20029;-82
2021/06/12 03:26:07;;;;;;;6.72;6.03;;;18.40;81.10;;;;;;5077366;28;20024;-83
2021/06/12 03:28:33;;;;;;;7.13;5.90;;;18.40;81.00;;;;;;5056875;28;20059;-83
2021/06/12 03:31:02;;;;;;;6.50;5.88;;;18.50;80.90;;;;;;5053732;28;20056;-83
2021/06/12 03:33:28;;;;;;;6.55;5.95;;;18.50;80.80;;;;;;5053314;28;20028;-83
2021/06/12 03:35:55;;;;;;;8.40;6.50;;;18.60;80.70;;;;;;5053533;28;20427;-83
2021/06/12 03:38:21;;;;;;;11.77;5.63;;;18.60;80.60;;;;;;5052339;28;20029;-82
2021/06/12 03:40:47;;;;;;;7.38;5.30;;;18.70;80.40;;;;;;5053862;28;20025;-83
2021/06/12 03:43:14;;;;;;;7.10;6.13;;;18.70;80.20;;;;;;5053752;28;20451;-83
2021/06/12 03:45:42;;;;;;;7.25;5.63;;;18.80;80.00;;;;;;5053505;28;20032;-82
2021/06/12 03:48:09;;;;;;;6.22;5.35;;;18.90;79.80;;;;;;5053795;28;20037;-83
2021/06/12 03:50:36;;;;;;;9.55;6.20;;;18.90;79.60;;;;;;5053427;28;20029;-83
2021/06/12 03:53:04;;;;;;;6.18;5.20;;;19.00;79.40;;;;;;5053226;28;20384;-83
2021/06/12 03:55:31;;;;;;;5.97;5.00;;;19.00;79.20;;;;;;5051710;28;20060;-83
2021/06/12 03:57:57;;;;;;;7.50;5.85;;;19.00;79.10;;;;;;5052089;28;20021;-83
2021/06/12 04:00:23;;;;;;;9.85;5.28;;;19.10;79.00;;;;;;5054000;28;20379;-83
2021/06/12 04:02:50;;;;;;;7.55;5.30;;;19.10;78.80;;;;;;5053754;28;20059;-83
2021/06/12 04:05:16;;;;;;;6.15;4.95;;;19.20;78.70;;;;;;5053736;28;20029;-83
2021/06/12 04:07:42;;;;;;;7.30;5.22;;;19.20;78.40;;;;;;5056283;28;20422;-84
2021/06/12 04:10:09;;;;;;;5.78;4.75;;;19.30;78.30;;;;;;5057030;28;20025;-84
2021/06/12 04:12:35;;;;;;;8.02;5.55;;;19.40;78.20;;;;;;5057163;28;20021;-84
2021/06/12 04:15:01;;;;;;;7.82;4.93;;;19.40;78.00;;;;;;5057746;28;20040;-83
2021/06/12 04:17:27;;;;;;;5.85;5.10;;;19.40;77.90;;;;;;5056963;28;20467;-83
2021/06/12 04:19:53;;;;;;;8.68;5.22;;;19.50;77.80;;;;;;5057396;28;20057;-83
2021/06/12 04:22:18;;;;;;;6.30;5.63;;;19.60;77.60;;;;;;5056805;28;20036;-83
2021/06/12 04:24:44;;;;;;;9.98;5.72;;;19.60;77.50;;;;;;5056901;28;20032;-84
2021/06/12 04:27:10;;;;;;;5.90;5.22;;;19.70;77.40;;;;;;5055766;28;20037;-84
2021/06/12 04:29:36;;;;;;;5.95;5.32;;;19.70;77.30;;;;;;5056390;28;20426;-84
2021/06/12 04:32:02;;;;;;;6.43;5.63;;;19.80;77.20;;;;;;5056943;28;20090;-84
2021/06/12 04:34:28;;;;;;;6.43;5.65;;;19.80;77.00;;;;;;5056725;28;20024;-84
2021/06/12 04:36:54;;;;;;;9.90;5.72;;;19.90;76.80;;;;;;5056869;28;20028;-84
2021/06/12 04:39:20;;;;;;;7.72;6.10;;;20.00;76.60;;;;;;5066247;28;20080;-84
2021/06/12 04:41:45;;;;;;;6.35;4.97;;;20.00;76.40;;;;;;5074417;28;20040;-83
2021/06/12 04:44:11;;;;;;;6.10;5.50;;;20.10;76.20;;;;;;5064403;28;20074;-83
2021/06/12 04:46:37;;;;;;;9.68;5.80;;;20.10;75.90;;;;;;5066188;28;20486;-83
2021/06/12 04:49:03;;;;;;;7.00;5.47;;;20.20;75.90;;;;;;5065482;28;20103;-82
2021/06/12 04:51:28;;;;;;;7.07;5.53;;;20.30;75.80;;;;;;5066953;28;20361;-82
2021/06/12 04:53:54;;;;;;;7.85;5.50;;;20.30;75.60;;;;;;5065033;28;20021;-83
2021/06/12 04:56:20;;;;;;;8.68;5.47;;;20.40;75.50;;;;;;5064854;28;20060;-83
2021/06/12 04:58:46;;;;;;;6.45;5.32;;;20.40;75.40;;;;;;5064773;28;20108;-83
2021/06/12 05:01:12;;;;;;;6.65;4.97;;;20.50;75.20;;;;;;5064949;28;20127;-83
2021/06/12 05:03:37;;;;;;;6.15;5.43;;;20.60;75.10;;;;;;5064336;28;20435;-83
2021/06/12 05:06:04;;;;;;;7.70;5.80;;;20.60;74.80;;;;;;5066206;28;20033;-82
2021/06/12 05:08:29;;;;;;;5.43;4.72;;;20.70;74.60;;;;;;5064526;28;20035;-83
2021/06/12 05:10:55;;;;;;;5.80;4.90;;;20.70;74.60;;;;;;5066342;28;20028;-81
2021/06/12 05:13:21;;;;;;;6.65;4.50;;;20.80;74.40;;;;;;5065006;28;20017;-82
2021/06/12 05:15:47;;;;;;;4.82;4.32;;;20.90;74.20;;;;;;5058948;28;20032;-83
2021/06/12 05:18:14;;;;;;;8.82;4.93;;;21.00;73.70;;;;;;5055625;28;20029;-83
2021/06/12 05:20:40;;;;;;;5.60;5.05;;;21.10;73.20;;;;;;5056085;28;20359;-83
2021/06/12 05:23:06;;;;;;;7.38;5.22;;;21.10;72.90;;;;;;5055909;28;20039;-82
2021/06/12 05:25:33;;;;;;;6.43;4.53;;;21.20;73.40;;;;;;5056049;28;20092;-83
2021/06/12 05:27:59;;;;;;;4.80;4.22;;;21.20;72.40;;;;;;5055920;28;20025;-83
2021/06/12 05:30:25;;;;;;;6.18;4.65;;;21.30;72.30;;;;;;5056243;28;20549;-82
2021/06/12 05:32:51;;;;;;;4.80;4.30;;;21.30;72.20;;;;;;5055396;28;20036;-83
2021/06/12 05:35:17;;;;;;;5.93;5.03;;;21.40;72.00;;;;;;5055869;28;20033;-84
2021/06/12 05:37:43;;;;;;;4.82;4.32;;;21.40;71.90;;;;;;5055458;28;20075;-83
2021/06/12 05:40:11;;;;;;;4.75;4.35;;;21.50;71.90;;;;;;5055440;28;20108;-83
2021/06/12 05:42:37;;;;;;;8.18;4.60;;;21.60;71.90;;;;;;5055469;28;20029;-83
2021/06/12 05:45:07;;;;;;;5.95;4.93;;;21.60;71.90;;;;;;5055620;28;20108;-83
2021/06/12 05:47:33;;;;;;;7.25;5.13;;;21.70;72.00;;;;;;5056395;28;20044;-83
2021/06/12 05:49:58;;;;;;;5.63;4.85;;;21.70;72.00;;;;;;5075161;28;20037;-84
2021/06/12 05:52:24;;;;;;;6.47;4.47;;;21.80;71.80;;;;;;5071993;28;20096;-83
2021/06/12 05:54:50;;;;;;;4.32;3.92;;;21.80;71.40;;;;;;5064687;28;20029;-82
2021/06/12 05:57:17;;;;;;;5.45;4.20;;;21.80;71.10;;;;;;5079524;28;20028;-82
2021/06/12 05:59:43;;;;;;;5.82;4.40;;;21.80;71.10;;;;;;5077845;28;20016;-84
2021/06/12 06:02:09;;;;;;;5.78;4.10;;;21.80;70.90;;;;;;5065500;28;20192;-82
2021/06/12 06:04:34;;;;;;;8.57;3.92;;;21.90;70.70;;;;;;5063503;28;20033;-83
2021/06/12 06:07:00;;;;;;;4.63;4.15;;;22.00;70.50;;;;;;5065907;28;20359;-82
2021/06/12 06:09:26;;;;;;;4.38;3.97;;;22.00;70.20;;;;;;5064081;28;20031;-83
2021/06/12 06:11:52;;;;;;;5.00;3.60;;;22.10;69.70;;;;;;5064145;28;20378;-84
2021/06/12 06:14:17;;;;;;;4.80;4.15;;;22.10;69.30;;;;;;5062936;28;20560;-83
2021/06/12 06:16:43;;;;;;;5.10;4.10;;;22.10;69.00;;;;;;5062250;28;20025;-84
2021/06/12 06:19:09;;;;;;;4.90;4.32;;;22.20;69.00;;;;;;5064267;28;20055;-83
2021/06/12 06:21:36;;;;;;;4.78;3.78;;;22.20;68.90;;;;;;5063719;28;20387;-82
2021/06/12 06:24:03;;;;;;;6.00;4.22;;;22.30;68.70;;;;;;5062855;28;20392;-83
2021/06/12 06:26:29;;;;;;;6.18;4.20;;;22.40;68.50;;;;;;5062777;28;20029;-84
2021/06/12 06:28:55;;;;;;;4.28;3.65;;;22.40;68.40;;;;;;5071578;28;20039;-84
2021/06/12 06:31:21;;;;;;;4.75;4.00;;;22.50;68.10;;;;;;5064705;28;20033;-85
2021/06/12 06:33:47;;;;;;;4.40;3.92;;;22.50;67.80;;;;;;5062381;28;20044;-84
2021/06/12 06:36:13;;;;;;;4.63;3.70;;;22.50;67.50;;;;;;5062899;28;20037;-83
2021/06/12 06:38:40;;;;;;;6.85;4.05;;;22.60;67.20;;;;;;5064202;28;20048;-82
2021/06/12 06:41:06;;;;;;;3.60;3.30;;;22.60;67.00;;;;;;5064423;28;20078;-82
2021/06/12 06:43:32;;;;;;;5.13;4.20;;;22.60;66.90;;;;;;5063063;28;20445;-81
2021/06/12 06:45:58;;;;;;;6.30;3.85;;;22.70;66.80;;;;;;5061497;28;20025;-84
2021/06/12 06:48:24;;;;;;;9.07;4.00;;;22.70;66.70;;;;;;5069546;28;20377;-82
2021/06/12 06:50:49;;;;;;;4.18;3.78;;;22.80;66.50;;;;;;5066732;28;20514;-83
2021/06/12 06:53:16;;;;;;;4.30;3.90;;;22.90;66.40;;;;;;5063220;28;20387;-83
2021/06/12 06:55:42;;;;;;;6.90;4.10;;;22.90;66.00;;;;;;5062181;28;20085;-83
2021/06/12 06:58:08;;;;;;;4.00;3.60;;;22.90;66.20;;;;;;5061096;28;20021;-83
2021/06/12 07:00:33;;;;;;;4.03;3.60;;;22.90;65.70;;;;;;5063496;28;20059;-83
2021/06/12 07:03:00;;;;;;;3.72;3.35;;;23.00;65.90;;;;;;5063696;28;20112;-84
2021/06/12 07:05:26;;;;;;;4.43;3.30;;;23.00;65.90;;;;;;5061569;28;20025;-83
2021/06/12 07:07:53;;;;;;;9.02;3.60;;;23.10;65.60;;;;;;5062849;28;20083;-83
2021/06/12 07:10:18;;;;;;;7.47;4.05;;;23.20;65.40;;;;;;5061360;28;20033;-83
2021/06/12 07:12:45;;;;;;;8.23;3.55;;;23.30;65.30;;;;;;5062321;28;20020;-83
2021/06/12 07:15:11;;;;;;;6.70;3.33;;;23.40;64.90;;;;;;5061171;28;20124;-83
2021/06/12 07:17:37;;;;;;;3.40;3.10;;;23.40;64.50;;;;;;5062108;28;20020;-85
2021/06/12 07:20:07;;;;;;;4.32;3.35;;;23.50;64.20;;;;;;5064180;28;20532;-84
2021/06/12 07:22:34;;;;;;;3.50;3.20;;;23.60;63.90;;;;;;5063037;28;20130;-84
2021/06/12 07:24:59;;;;;;;3.33;3.03;;;23.70;63.50;;;;;;5061809;28;20020;-82
2021/06/12 07:27:25;;;;;;;4.35;3.00;;;23.80;63.00;;;;;;5063525;28;20043;-80
2021/06/12 07:29:52;;;;;;;4.00;3.33;;;23.90;62.90;;;;;;5062005;28;20028;-82
2021/06/12 07:32:17;;;;;;;2.90;2.70;;;24.00;62.70;;;;;;5062116;28;20509;-82
2021/06/12 07:34:43;;;;;;;3.60;3.30;;;24.00;62.50;;;;;;5063797;28;20064;-81
2021/06/12 07:37:09;;;;;;;3.33;2.75;;;24.10;62.20;;;;;;5061677;28;20027;-83
2021/06/12 07:39:35;;;;;;;3.58;3.13;;;24.20;62.00;;;;;;5062585;28;20021;-83
2021/06/12 07:42:01;;;;;;;3.85;3.10;;;24.30;61.80;;;;;;5067686;28;20036;-83
2021/06/12 07:44:26;;;;;;;4.18;2.72;;;24.50;61.40;;;;;;5066138;28;20017;-83
2021/06/12 07:46:54;;;;;;;3.08;2.78;;;24.60;61.20;;;;;;5066915;28;20497;-83
2021/06/12 07:49:19;;;;;;;4.07;2.83;;;24.70;60.80;;;;;;5063618;28;20382;-84
2021/06/12 07:51:45;;;;;;;2.95;2.72;;;24.70;60.60;;;;;;5067622;28;20035;-83
2021/06/12 07:54:11;;;;;;;3.38;2.95;;;24.80;60.60;;;;;;5065959;28;20033;-83
2021/06/12 07:56:37;;;;;;;2.72;2.53;;;24.90;60.00;;;;;;5065769;28;20516;-83
2021/06/12 07:59:03;;;;;;;3.08;2.88;;;25.10;59.60;;;;;;5064597;28;20043;-82
2021/06/12 08:01:29;;;;;;;2.92;2.60;;;25.30;59.10;;;;;;5067277;28;20048;-83
2021/06/12 08:03:55;;;;;;;3.00;2.80;;;25.30;58.70;;;;;;5065975;28;20478;-83
2021/06/12 08:06:21;;;;;;;3.20;2.90;;;25.40;58.30;;;;;;5065257;28;20452;-83
2021/06/12 08:08:47;;;;;;;6.03;2.85;;;25.50;58.40;;;;;;5067038;28;20028;-83
2021/06/12 08:11:13;;;;;;;3.10;2.90;;;25.70;58.20;;;;;;5061705;28;20029;-84
2021/06/12 08:13:38;;;;;;;3.00;2.42;;;25.80;57.80;;;;;;5055922;28;20072;-83
2021/06/12 08:16:05;;;;;;;2.95;2.60;;;26.00;57.20;;;;;;5055825;28;20048;-84
2021/06/12 08:18:32;;;;;;;4.43;2.97;;;26.20;56.90;;;;;;5057002;28;20131;-83
2021/06/12 08:20:58;;;;;;;3.00;2.70;;;26.40;56.20;;;;;;5057416;28;20025;-84
2021/06/12 08:23:24;;;;;;;2.80;2.60;;;26.50;55.60;;;;;;5057027;28;20167;-84
2021/06/12 08:25:49;;;;;;;4.22;2.63;;;26.60;55.30;;;;;;5055743;28;20029;-84
2021/06/12 08:28:15;;;;;;;4.40;2.83;;;26.70;55.10;;;;;;5057387;28;20036;-84
2021/06/12 08:30:41;;;;;;;3.28;2.97;;;26.80;55.00;;;;;;5066438;28;20032;-83
2021/06/12 08:33:08;;;;;;;2.83;2.50;;;27.00;55.20;;;;;;5079590;28;20076;-84
2021/06/12 08:35:34;;;;;;;5.40;2.80;;;27.20;55.00;;;;;;5062750;28;20372;-84
2021/06/12 08:38:00;;;;;;;2.53;2.30;;;27.30;54.40;;;;;;5057867;28;20029;-83
2021/06/12 08:40:26;;;;;;;2.70;2.40;;;27.60;53.80;;;;;;5055432;28;20024;-85
2021/06/12 08:42:53;;;;;;;4.78;2.42;;;27.80;53.20;;;;;;5056734;28;20059;-84
2021/06/12 08:45:28;;;;;;;2.60;2.40;;;28.00;53.00;;;;;;5056188;28;20103;-82
2021/06/12 08:47:55;;;;;;;2.78;2.45;;;28.10;52.10;;;;;;5056548;28;20082;-83
2021/06/12 08:50:23;;;;;;;2.72;2.47;;;28.40;51.80;;;;;;5055990;28;20403;-84
2021/06/12 08:52:50;;;;;;;2.55;2.35;;;28.60;51.50;;;;;;5055631;28;20021;-83
2021/06/12 08:55:17;;;;;;;5.38;2.63;;;28.90;51.60;;;;;;5056195;28;20037;-83
2021/06/12 08:57:43;;;;;;;4.00;2.63;;;29.20;50.80;;;;;;5056330;28;20032;-83
2021/06/12 09:00:11;;;;;;;2.50;2.30;;;29.60;50.30;;;;;;5056536;28;20379;-84
2021/06/12 09:03:07;;;;;;;8.85;2.58;;;29.80;49.60;;;;;;5066814;28;20536;-84
2021/06/12 09:05:38;;;;;;;2.72;2.50;;;30.20;49.40;;;;;;5064017;28;20037;-83
2021/06/12 09:08:06;;;;;;;3.67;2.28;;;30.60;49.00;;;;;;5064609;28;20033;-84
2021/06/12 09:10:32;;;;;;;2.67;2.47;;;30.90;48.60;;;;;;5066294;28;20031;-82
2021/06/12 09:13:00;;;;;;;2.63;2.13;;;31.20;48.00;;;;;;5058783;28;20029;-83
2021/06/12 09:15:26;;;;;;;2.78;1.95;;;31.50;47.10;;;;;;5056058;28;20509;-83
2021/06/12 09:17:52;;;;;;;2.92;2.38;;;31.90;46.70;;;;;;5068046;28;20060;-84
2021/06/12 09:20:42;;;;;;;2.50;2.20;;;32.20;46.20;;;;;;5061332;28;20024;-83
2021/06/12 09:23:18;;;;;;;2.22;2.03;;;32.60;46.00;;;;;;5068187;28;20035;-84
2021/06/12 09:25:47;;;;;;;2.38;2.17;;;32.90;45.50;;;;;;5075475;28;20474;-83
2021/06/12 09:28:12;;;;;;;2.10;2.00;;;33.20;44.90;;;;;;5072158;28;20111;-82
2021/06/12 09:30:38;;;;;;;2.03;1.73;;;33.50;44.40;;;;;;5072911;28;20067;-82
2021/06/12 09:33:05;;;;;;;2.35;2.15;;;33.80;43.40;;;;;;5066759;28;20039;-84
2021/06/12 09:35:43;;;;;;;2.63;2.38;;;34.00;43.00;;;;;;5062927;28;20032;-82
2021/06/12 09:38:26;;;;;;;1.80;1.65;;;34.40;42.90;;;;;;5075544;28;20020;-83
2021/06/12 09:40:52;;;;;;;2.28;2.13;;;34.80;41.90;;;;;;5075451;28;20078;-82
2021/06/12 09:43:31;;;;;;;2.50;2.30;;;35.30;41.70;;;;;;5074916;28;20021;-84
2021/06/12 09:45:57;;;;;;;2.35;2.10;;;35.80;41.30;;;;;;5069737;28;20351;-84
2021/06/12 09:48:23;;;;;;;2.65;2.45;;;36.40;41.30;;;;;;5054965;28;20035;-83
2021/06/12 09:51:09;;;;;;;2.45;2.25;;;37.00;40.80;;;;;;5054648;28;20104;-84
2021/06/12 09:53:50;;;;;;;4.50;2.78;;;37.50;39.90;;;;;;5055740;28;20027;-82
2021/06/12 09:56:16;;;;;;;3.05;2.30;;;38.10;39.50;;;;;;5058016;28;20472;-84
2021/06/12 09:58:42;;;;;;;2.47;2.30;;;38.70;39.30;;;;;;5075569;28;20059;-84
2021/06/12 10:01:10;;;;;;;3.67;2.50;;;39.30;38.80;;;;;;5075522;28;20052;-84
2021/06/12 10:03:36;;;;;;;2.70;2.45;;;39.70;38.10;;;;;;5075530;28;20075;-83
2021/06/12 10:06:14;;;;;;;2.60;2.30;;;40.20;37.70;;;;;;5075338;28;20111;-83
2021/06/12 10:08:51;;;;;;;2.40;2.30;;;40.60;36.80;;;;;;5093298;28;20035;-83
2021/06/12 10:11:19;;;;;;;2.72;2.53;;;41.00;36.40;;;;;;5095279;28;20032;-84
2021/06/12 10:13:46;;;;;;;4.28;2.25;;;41.50;36.30;;;;;;5093900;28;20028;-83
2021/06/12 10:16:14;;;;;;;2.70;2.50;;;41.90;35.70;;;;;;5076632;28;20472;-85
2021/06/12 10:18:41;;;;;;;4.53;2.60;;;42.10;35.20;;;;;;5051513;28;20056;-84
2021/06/12 10:21:14;;;;;;;3.10;2.50;;;42.40;34.90;;;;;;5036502;28;20021;-84
2021/06/12 10:23:41;;;;;;;2.92;2.72;;;42.40;34.50;;;;;;5055768;28;20098;-83
2021/06/12 10:26:09;;;;;;;3.25;2.58;;;42.10;34.80;;;;;;5059441;28;20033;-84
2021/06/12 10:28:35;;;;;;;4.93;2.40;;;42.10;34.80;;;;;;5095826;28;20484;-83
2021/06/12 10:31:13;;;;;;;2.65;2.45;;;42.20;34.90;;;;;;5095152;28;20035;-84
2021/06/12 10:33:42;;;;;;;3.35;2.40;;;42.20;34.70;;;;;;5094953;28;20024;-84
2021/06/12 10:36:20;;;;;;;2.17;2.05;;;42.50;34.70;;;;;;5066760;28;20471;-84
2021/06/12 10:38:47;;;;;;;2.20;2.10;;;42.60;34.10;;;;;;5054858;28;20039;-84
2021/06/12 10:41:22;;;;;;;2.28;2.08;;;41.90;33.70;;;;;;5056194;28;20056;-84
2021/06/12 10:43:50;;;;;;;1.90;1.80;;;41.90;33.60;;;;;;5056585;28;20037;-84
2021/06/12 10:46:21;;;;;;;2.17;1.98;;;42.00;33.10;;;;;;5074039;28;20139;-85
2021/06/12 10:48:54;;;;;;;2.90;2.00;;;42.40;32.90;;;;;;5075392;28;20035;-84
2021/06/12 10:51:26;;;;;;;2.17;1.98;;;42.80;32.70;;;;;;5074449;28;20037;-85
2021/06/12 10:54:20;;;;;;;2.47;2.27;;;43.10;32.50;;;;;;5065886;28;20179;-84
2021/06/12 10:56:50;;;;;;;2.15;2.05;;;43.40;32.20;;;;;;5074285;28;20036;-84
2021/06/12 10:59:39;;;;;;;2.92;2.05;;;43.60;31.80;;;;;;5072903;28;20063;-84
2021/06/12 11:02:17;;;;;;;1.90;1.80;;;43.90;31.30;;;;;;5065686;28;20029;-84
2021/06/12 11:07:32;;;;;;;3.40;2.38;;;44.20;31.00;;;;;;5084082;28;20033;-85
2021/06/12 11:10:10;;;;;;;3.22;2.22;;;44.30;30.80;;;;;;5064196;28;20021;-85
2021/06/12 11:12:38;;;;;;;2.38;2.28;;;44.30;31.10;;;;;;5054343;28;20059;-84
2021/06/12 11:15:11;;;;;;;2.38;2.20;;;44.40;31.20;;;;;;5053481;28;20032;-85
2021/06/12 11:17:38;;;;;;;2.53;2.33;;;44.70;31.20;;;;;;5053338;28;20447;-83
2021/06/12 11:20:04;;;;;;;2.17;2.05;;;44.80;31.10;;;;;;5054064;28;20098;-85
2021/06/12 11:22:44;;;;;;;2.65;2.20;;;44.90;31.10;;;;;;5056504;28;20064;-84
2021/06/12 11:25:10;;;;;;;3.53;2.08;;;45.20;30.90;;;;;;5062113;28;20060;-83
2021/06/12 11:27:45;;;;;;;2.38;1.90;;;45.40;30.90;;;;;;5056678;28;20166;-83
2021/06/12 11:30:20;;;;;;;2.28;2.10;;;45.60;30.60;;;;;;5054744;28;20119;-85
2021/06/12 11:32:47;;;;;;;7.13;2.17;;;45.70;30.50;;;;;;5073931;28;20024;-84
2021/06/12 11:35:39;;;;;;;2.20;2.08;;;45.70;30.50;;;;;;5073401;28;20028;-85
2021/06/12 11:38:11;;;;;;;2.63;2.30;;;45.70;30.10;;;;;;5074199;28;20071;-85
2021/06/12 11:40:39;;;;;;;3.53;2.55;;;45.70;30.50;;;;;;5055668;28;20029;-84
2021/06/12 11:43:07;;;;;;;2.50;2.35;;;45.70;30.50;;;;;;5055122;28;20052;-85
2021/06/12 11:45:35;;;;;;;2.97;2.40;;;45.70;30.50;;;;;;5054879;28;20028;-84
2021/06/12 11:48:19;;;;;;;2.45;2.35;;;45.70;30.20;;;;;;5053785;28;20053;-84
2021/06/12 11:50:45;;;;;;;2.92;2.30;;;45.80;30.30;;;;;;5054201;28;20025;-85
2021/06/12 11:53:15;;;;;;;3.88;2.20;;;46.00;30.50;;;;;;5054546;28;20039;-82
2021/06/12 11:55:41;;;;;;;5.97;2.75;;;46.20;30.00;;;;;;5056303;28;20063;-83
2021/06/12 11:58:07;;;;;;;5.32;2.30;;;46.30;30.00;;;;;;5076842;28;20024;-84
2021/06/12 12:00:45;;;;;;;3.58;2.10;;;46.40;30.00;;;;;;5078280;28;20028;-85
2021/06/12 12:03:13;;;;;;;2.40;2.20;;;46.50;29.80;;;;;;5085349;28;20028;-83
2021/06/12 12:05:47;;;;;;;2.83;2.28;;;46.60;29.80;;;;;;5094538;28;20040;-81
2021/06/12 12:08:15;;;;;;;2.38;2.17;;;46.80;29.80;;;;;;5077420;28;20044;-82
2021/06/12 12:10:43;;;;;;;4.22;2.33;;;46.80;29.80;;;;;;5076403;28;20001;-82
2021/06/12 12:13:37;;;;;;;2.30;2.10;;;46.80;29.80;;;;;;5076031;28;20013;-82
2021/06/12 12:16:21;;;;;;;3.13;2.20;;;46.90;29.70;;;;;;5083356;28;20058;-84
2021/06/12 12:18:54;;;;;;;2.33;2.13;;;47.00;29.60;;;;;;5096683;28;20036;-84
2021/06/12 12:21:35;;;;;;;2.50;2.35;;;47.00;29.40;;;;;;5096295;28;20004;-85
2021/06/12 12:24:04;;;;;;;4.80;2.80;;;46.90;29.30;;;;;;5092924;28;20494;-84
2021/06/12 12:26:30;;;;;;;2.40;2.20;;;46.90;29.60;;;;;;5064338;28;20662;-84
2021/06/12 12:29:14;;;;;;;2.40;2.30;;;47.00;29.30;;;;;;5070540;28;20049;-85
2021/06/12 12:31:53;;;;;;;2.75;2.40;;;47.10;29.20;;;;;;5073796;28;20195;-84
2021/06/12 12:34:44;;;;;;;4.03;2.20;;;47.00;29.30;;;;;;5065543;28;20494;-85
2021/06/12 12:37:21;;;;;;;5.05;2.50;;;47.10;29.30;;;;;;5075721;28;20052;-84
2021/06/12 12:39:52;;;;;;;1.92;1.83;;;47.20;29.30;;;;;;5077263;28;20115;-84
2021/06/12 12:42:20;;;;;;;2.43;2.30;;;47.30;29.20;;;;;;5077700;28;20031;-84
2021/06/12 12:44:48;;;;;;;2.33;2.13;;;47.30;29.30;;;;;;5077568;28;20036;-85
2021/06/12 12:47:18;;;;;;;2.63;2.42;;;47.30;29.30;;;;;;5061028;28;20171;-84
2021/06/12 12:49:45;;;;;;;2.60;2.50;;;47.20;29.20;;;;;;5057937;28;20075;-82
2021/06/12 12:52:22;;;;;;;2.63;2.40;;;47.10;29.20;;;;;;5057653;28;20037;-85
2021/06/12 12:54:58;;;;;;;2.20;2.10;;;47.10;29.00;;;;;;5056766;28;20096;-83